sensor_id;sensor_type;location;lat;lon;timestamp;temperature;humidity
5280;DHT22;2663;53.588;10.010;2023-02-17T00:02:17;9.40;99.90
5280;DHT22;2663;53.588;10.010;2023-02-17T00:04:43;9.40;99.90
5280;DHT22;2663;53.588;10.010;2023-02-17T00:07:10;9.50;99.90
5280;DHT22;2663;53.588;10.010;2023-02-17T00:09:36;9.50;99.90
5280;DHT22;2663;53.588;10.010;2023-02-17T00:12:03;9.40;99.90
5280;DHT22;2663;53.588;10.010;2023-02-17T00:14:30;9.40;99.90
5280;DHT22;2663;53.588;10.010;2023-02-17T00:16:57;9.40;99.90
5280;DHT22;2663;53.588;10.010;2023-02-17T00:19:23;9.50;99.90
5280;DHT22;2663;53.588;10.010;2023-02-17T00:22:00;8.80;99.90
5280;DHT22;2663;53.588;10.010;2023-02-17T00:24:29;9.40;99.90
5280;DHT22;2663;53.588;10.010;2023-02-17T00:26:56;9.50;99.90
5280;DHT22;2663;53.588;10.010;2023-02-17T00:29:23;9.50;99.90
5280;DHT22;2663;53.588;10.010;2023-02-17T00:31:51;9.50;99.90
5280;DHT22;2663;53.588;10.010;2023-02-17T00:34:18;9.50;99.90
5280;DHT22;2663;53.588;10.010;2023-02-17T00:36:46;9.50;99.90
5280;DHT22;2663;53.588;10.010;2023-02-17T00:39:14;9.40;99.90
5280;DHT22;2663;53.588;10.010;2023-02-17T00:41:42;9.40;99.90
5280;DHT22;2663;53.588;10.010;2023-02-17T00:44:21;9.50;99.90
5280;DHT22;2663;53.588;10.010;2023-02-17T00:46:47;9.50;99.90
5280;DHT22;2663;53.588;10.010;2023-02-17T00:49:21;9.50;99.90
5280;DHT22;2663;53.588;10.010;2023-02-17T00:51:49;9.50;99.90
5280;DHT22;2663;53.588;10.010;2023-02-17T00:54:16;9.50;99.90
5280;DHT22;2663;53.588;10.010;2023-02-17T00:56:43;9.60;99.90
5280;DHT22;2663;53.588;10.010;2023-02-17T00:59:10;9.60;99.90
5280;DHT22;2663;53.588;10.010;2023-02-17T01:01:37;9.60;99.90
5280;DHT22;2663;53.588;10.010;2023-02-17T01:04:04;9.60;99.90
5280;DHT22;2663;53.588;10.010;2023-02-17T01:06:34;9.50;99.90
5280;DHT22;2663;53.588;10.010;2023-02-17T01:09:04;9.60;99.90
5280;DHT22;2663;53.588;10.010;2023-02-17T01:11:33;9.60;99.90
5280;DHT22;2663;53.588;10.010;2023-02-17T01:14:02;9.60;99.90
5280;DHT22;2663;53.588;10.010;2023-02-17T01:16:37;9.60;99.90
5280;DHT22;2663;53.588;10.010;2023-02-17T01:19:07;9.60;99.90
5280;DHT22;2663;53.588;10.010;2023-02-17T01:21:34;9.60;99.90
5280;DHT22;2663;53.588;10.010;2023-02-17T01:24:03;9.60;99.90
5280;DHT22;2663;53.588;10.010;2023-02-17T01:26:32;9.50;99.90
5280;DHT22;2663;53.588;10.010;2023-02-17T01:28:59;9.60;99.90
5280;DHT22;2663;53.588;10.010;2023-02-17T01:31:26;9.60;99.90
5280;DHT22;2663;53.588;10.010;2023-02-17T01:33:55;9.60;99.90
5280;DHT22;2663;53.588;10.010;2023-02-17T01:36:22;9.60;99.90
5280;DHT22;2663;53.588;10.010;2023-02-17T01:38:49;9.60;99.90
5280;DHT22;2663;53.588;10.010;2023-02-17T01:41:19;9.60;99.90
5280;DHT22;2663;53.588;10.010;2023-02-17T01:44:11;9.70;99.90
5280;DHT22;2663;53.588;10.010;2023-02-17T01:46:41;9.70;99.90
5280;DHT22;2663;53.588;10.010;2023-02-17T01:52:22;9.70;99.90
5280;DHT22;2663;53.588;10.010;2023-02-17T01:54:55;9.70;99.90
5280;DHT22;2663;53.588;10.010;2023-02-17T01:57:26;9.70;99.90
5280;DHT22;2663;53.588;10.010;2023-02-17T01:59:54;9.70;99.90
5280;DHT22;2663;53.588;10.010;2023-02-17T02:02:21;9.70;99.90
5280;DHT22;2663;53.588;10.010;2023-02-17T02:04:51;9.70;99.90
5280;DHT22;2663;53.588;10.010;2023-02-17T02:07:34;9.70;99.90
5280;DHT22;2663;53.588;10.010;2023-02-17T02:10:02;9.70;99.90
5280;DHT22;2663;53.588;10.010;2023-02-17T02:12:34;9.70;99.90
5280;DHT22;2663;53.588;10.010;2023-02-17T02:15:21;9.70;99.90
5280;DHT22;2663;53.588;10.010;2023-02-17T02:18:10;9.70;99.90
5280;DHT22;2663;53.588;10.010;2023-02-17T02:31:45;9.80;99.90
5280;DHT22;2663;53.588;10.010;2023-02-17T02:34:26;9.80;99.90
5280;DHT22;2663;53.588;10.010;2023-02-17T02:37:00;9.80;99.90
5280;DHT22;2663;53.588;10.010;2023-02-17T02:39:34;9.90;99.90
5280;DHT22;2663;53.588;10.010;2023-02-17T02:42:07;9.90;99.90
5280;DHT22;2663;53.588;10.010;2023-02-17T02:44:35;9.90;99.90
5280;DHT22;2663;53.588;10.010;2023-02-17T02:47:05;9.90;99.90
5280;DHT22;2663;53.588;10.010;2023-02-17T02:49:34;9.90;99.90
5280;DHT22;2663;53.588;10.010;2023-02-17T02:52:22;10.00;99.90
5280;DHT22;2663;53.588;10.010;2023-02-17T02:55:06;9.90;99.90
5280;DHT22;2663;53.588;10.010;2023-02-17T03:00:27;9.90;99.90
5280;DHT22;2663;53.588;10.010;2023-02-17T03:03:08;9.90;99.90
5280;DHT22;2663;53.588;10.010;2023-02-17T03:05:56;9.90;99.90
5280;DHT22;2663;53.588;10.010;2023-02-17T03:08:43;9.90;99.90
5280;DHT22;2663;53.588;10.010;2023-02-17T03:11:12;9.90;99.90
5280;DHT22;2663;53.588;10.010;2023-02-17T03:13:40;9.70;99.90
5280;DHT22;2663;53.588;10.010;2023-02-17T03:16:07;9.90;99.90
5280;DHT22;2663;53.588;10.010;2023-02-17T03:18:35;9.90;99.90
5280;DHT22;2663;53.588;10.010;2023-02-17T03:21:08;10.00;99.90
5280;DHT22;2663;53.588;10.010;2023-02-17T03:23:37;9.90;99.90
5280;DHT22;2663;53.588;10.010;2023-02-17T03:26:04;10.00;99.90
5280;DHT22;2663;53.588;10.010;2023-02-17T03:28:31;10.10;99.90
5280;DHT22;2663;53.588;10.010;2023-02-17T03:30:58;10.00;99.90
5280;DHT22;2663;53.588;10.010;2023-02-17T03:33:25;10.00;99.90
5280;DHT22;2663;53.588;10.010;2023-02-17T03:35:51;10.00;99.90
5280;DHT22;2663;53.588;10.010;2023-02-17T03:38:18;10.00;99.90
5280;DHT22;2663;53.588;10.010;2023-02-17T03:40:45;10.00;99.90
5280;DHT22;2663;53.588;10.010;2023-02-17T03:43:11;10.00;99.90
5280;DHT22;2663;53.588;10.010;2023-02-17T03:45:38;10.00;99.90
5280;DHT22;2663;53.588;10.010;2023-02-17T03:48:05;10.00;99.90
5280;DHT22;2663;53.588;10.010;2023-02-17T03:50:31;10.10;99.90
5280;DHT22;2663;53.588;10.010;2023-02-17T03:52:58;10.00;99.90
5280;DHT22;2663;53.588;10.010;2023-02-17T03:55:25;10.10;99.90
5280;DHT22;2663;53.588;10.010;2023-02-17T03:57:51;10.10;99.90
5280;DHT22;2663;53.588;10.010;2023-02-17T04:00:18;10.10;99.90
5280;DHT22;2663;53.588;10.010;2023-02-17T04:02:45;10.10;99.90
5280;DHT22;2663;53.588;10.010;2023-02-17T04:05:12;10.10;99.90
5280;DHT22;2663;53.588;10.010;2023-02-17T04:07:38;10.10;99.90
5280;DHT22;2663;53.588;10.010;2023-02-17T04:10:06;10.10;99.90
5280;DHT22;2663;53.588;10.010;2023-02-17T04:12:35;10.20;99.90
5280;DHT22;2663;53.588;10.010;2023-02-17T04:15:01;10.20;99.90
5280;DHT22;2663;53.588;10.010;2023-02-17T04:17:28;10.10;99.90
5280;DHT22;2663;53.588;10.010;2023-02-17T04:19:55;10.10;99.90
5280;DHT22;2663;53.588;10.010;2023-02-17T04:22:21;10.20;99.90
5280;DHT22;2663;53.588;10.010;2023-02-17T04:24:48;10.20;99.90
5280;DHT22;2663;53.588;10.010;2023-02-17T04:27:15;10.20;99.90
5280;DHT22;2663;53.588;10.010;2023-02-17T04:29:42;8.70;99.90
5280;DHT22;2663;53.588;10.010;2023-02-17T04:32:08;10.20;99.90
5280;DHT22;2663;53.588;10.010;2023-02-17T04:34:35;10.20;99.90
5280;DHT22;2663;53.588;10.010;2023-02-17T04:37:02;10.20;99.90
5280;DHT22;2663;53.588;10.010;2023-02-17T04:39:28;10.30;99.90
5280;DHT22;2663;53.588;10.010;2023-02-17T04:41:55;10.30;99.90
5280;DHT22;2663;53.588;10.010;2023-02-17T04:44:22;10.30;99.90
5280;DHT22;2663;53.588;10.010;2023-02-17T04:46:48;12.10;99.90
5280;DHT22;2663;53.588;10.010;2023-02-17T04:49:15;10.30;99.90
5280;DHT22;2663;53.588;10.010;2023-02-17T04:51:41;10.30;99.90
5280;DHT22;2663;53.588;10.010;2023-02-17T04:54:08;10.30;99.90
5280;DHT22;2663;53.588;10.010;2023-02-17T04:56:35;10.30;99.90
5280;DHT22;2663;53.588;10.010;2023-02-17T04:59:01;10.40;99.90
5280;DHT22;2663;53.588;10.010;2023-02-17T05:01:28;10.40;99.90
5280;DHT22;2663;53.588;10.010;2023-02-17T05:03:55;10.30;99.90
5280;DHT22;2663;53.588;10.010;2023-02-17T05:06:21;10.40;99.90
5280;DHT22;2663;53.588;10.010;2023-02-17T05:08:48;10.40;99.90
5280;DHT22;2663;53.588;10.010;2023-02-17T05:11:16;10.40;99.90
5280;DHT22;2663;53.588;10.010;2023-02-17T05:13:42;12.40;99.90
5280;DHT22;2663;53.588;10.010;2023-02-17T05:16:09;10.40;99.90
5280;DHT22;2663;53.588;10.010;2023-02-17T05:18:36;10.40;99.90
5280;DHT22;2663;53.588;10.010;2023-02-17T05:21:02;10.40;99.90
5280;DHT22;2663;53.588;10.010;2023-02-17T05:23:29;10.40;99.90
5280;DHT22;2663;53.588;10.010;2023-02-17T05:25:56;10.30;99.90
5280;DHT22;2663;53.588;10.010;2023-02-17T05:28:22;10.40;99.90
5280;DHT22;2663;53.588;10.010;2023-02-17T05:30:49;10.40;99.90
5280;DHT22;2663;53.588;10.010;2023-02-17T05:33:16;10.40;99.90
5280;DHT22;2663;53.588;10.010;2023-02-17T05:35:42;10.40;99.90
5280;DHT22;2663;53.588;10.010;2023-02-17T05:38:09;10.40;99.90
5280;DHT22;2663;53.588;10.010;2023-02-17T05:40:36;10.50;99.90
5280;DHT22;2663;53.588;10.010;2023-02-17T05:43:02;10.50;99.90
5280;DHT22;2663;53.588;10.010;2023-02-17T05:45:29;10.40;99.90
5280;DHT22;2663;53.588;10.010;2023-02-17T05:47:55;10.40;99.90
5280;DHT22;2663;53.588;10.010;2023-02-17T05:50:22;10.50;99.90
5280;DHT22;2663;53.588;10.010;2023-02-17T05:52:49;10.50;99.90
5280;DHT22;2663;53.588;10.010;2023-02-17T05:55:15;10.50;99.90
5280;DHT22;2663;53.588;10.010;2023-02-17T05:57:42;10.50;99.90
5280;DHT22;2663;53.588;10.010;2023-02-17T06:00:09;10.50;99.90
5280;DHT22;2663;53.588;10.010;2023-02-17T06:02:36;10.50;99.90
5280;DHT22;2663;53.588;10.010;2023-02-17T06:05:03;10.50;99.90
5280;DHT22;2663;53.588;10.010;2023-02-17T06:07:30;10.50;99.90
5280;DHT22;2663;53.588;10.010;2023-02-17T06:09:56;10.50;99.90
5280;DHT22;2663;53.588;10.010;2023-02-17T06:12:23;10.50;99.90
5280;DHT22;2663;53.588;10.010;2023-02-17T06:14:50;10.50;99.90
5280;DHT22;2663;53.588;10.010;2023-02-17T06:17:16;10.80;99.90
5280;DHT22;2663;53.588;10.010;2023-02-17T06:19:43;10.50;99.90
5280;DHT22;2663;53.588;10.010;2023-02-17T06:22:10;10.50;99.90
5280;DHT22;2663;53.588;10.010;2023-02-17T06:24:36;10.50;99.90
5280;DHT22;2663;53.588;10.010;2023-02-17T06:27:03;10.50;99.90
5280;DHT22;2663;53.588;10.010;2023-02-17T06:29:30;10.50;99.90
5280;DHT22;2663;53.588;10.010;2023-02-17T06:31:57;10.50;99.90
5280;DHT22;2663;53.588;10.010;2023-02-17T06:34:23;10.50;99.90
5280;DHT22;2663;53.588;10.010;2023-02-17T06:36:50;10.50;99.90
5280;DHT22;2663;53.588;10.010;2023-02-17T06:39:17;10.40;99.90
5280;DHT22;2663;53.588;10.010;2023-02-17T06:41:44;10.40;99.90
5280;DHT22;2663;53.588;10.010;2023-02-17T06:44:11;10.50;99.90
5280;DHT22;2663;53.588;10.010;2023-02-17T06:46:38;10.40;99.90
5280;DHT22;2663;53.588;10.010;2023-02-17T06:49:04;10.40;99.90
5280;DHT22;2663;53.588;10.010;2023-02-17T06:51:31;10.40;99.90
5280;DHT22;2663;53.588;10.010;2023-02-17T06:53:58;11.00;99.90
5280;DHT22;2663;53.588;10.010;2023-02-17T06:56:24;11.80;99.90
5280;DHT22;2663;53.588;10.010;2023-02-17T06:58:51;12.40;99.90
5280;DHT22;2663;53.588;10.010;2023-02-17T07:01:20;12.50;99.90
5280;DHT22;2663;53.588;10.010;2023-02-17T07:03:47;11.70;99.90
5280;DHT22;2663;53.588;10.010;2023-02-17T07:06:14;11.20;99.90
5280;DHT22;2663;53.588;10.010;2023-02-17T07:08:41;11.00;99.90
5280;DHT22;2663;53.588;10.010;2023-02-17T07:11:09;10.80;99.90
5280;DHT22;2663;53.588;10.010;2023-02-17T07:13:36;10.70;99.90
5280;DHT22;2663;53.588;10.010;2023-02-17T07:16:04;10.60;99.90
5280;DHT22;2663;53.588;10.010;2023-02-17T07:18:31;10.60;99.90
5280;DHT22;2663;53.588;10.010;2023-02-17T07:20:58;10.60;99.90
5280;DHT22;2663;53.588;10.010;2023-02-17T07:23:25;10.60;99.90
5280;DHT22;2663;53.588;10.010;2023-02-17T07:25:51;10.60;99.90
5280;DHT22;2663;53.588;10.010;2023-02-17T07:28:18;10.60;99.90
5280;DHT22;2663;53.588;10.010;2023-02-17T07:30:45;10.60;99.90
5280;DHT22;2663;53.588;10.010;2023-02-17T07:33:12;10.60;99.90
5280;DHT22;2663;53.588;10.010;2023-02-17T07:35:42;10.60;99.90
5280;DHT22;2663;53.588;10.010;2023-02-17T07:38:11;10.60;99.90
5280;DHT22;2663;53.588;10.010;2023-02-17T07:40:38;10.50;99.90
5280;DHT22;2663;53.588;10.010;2023-02-17T07:43:05;10.60;99.90
5280;DHT22;2663;53.588;10.010;2023-02-17T07:45:32;10.50;99.90
5280;DHT22;2663;53.588;10.010;2023-02-17T07:47:59;10.50;99.90
5280;DHT22;2663;53.588;10.010;2023-02-17T07:50:26;10.50;99.90
5280;DHT22;2663;53.588;10.010;2023-02-17T07:52:52;10.50;99.90
5280;DHT22;2663;53.588;10.010;2023-02-17T07:55:19;10.50;99.90
5280;DHT22;2663;53.588;10.010;2023-02-17T07:57:46;12.10;99.90
5280;DHT22;2663;53.588;10.010;2023-02-17T08:00:13;10.60;99.90
5280;DHT22;2663;53.588;10.010;2023-02-17T08:02:40;10.60;99.90
5280;DHT22;2663;53.588;10.010;2023-02-17T08:05:06;10.60;99.90
5280;DHT22;2663;53.588;10.010;2023-02-17T08:07:33;10.60;99.90
5280;DHT22;2663;53.588;10.010;2023-02-17T08:10:00;10.60;99.90
5280;DHT22;2663;53.588;10.010;2023-02-17T08:12:45;10.60;99.90
5280;DHT22;2663;53.588;10.010;2023-02-17T08:15:33;12.00;99.90
5280;DHT22;2663;53.588;10.010;2023-02-17T08:18:00;10.60;99.90
5280;DHT22;2663;53.588;10.010;2023-02-17T08:20:27;10.60;99.90
5280;DHT22;2663;53.588;10.010;2023-02-17T08:22:54;10.50;99.90
5280;DHT22;2663;53.588;10.010;2023-02-17T08:25:20;10.50;99.90
5280;DHT22;2663;53.588;10.010;2023-02-17T08:27:47;10.50;99.90
5280;DHT22;2663;53.588;10.010;2023-02-17T08:30:14;10.50;99.90
5280;DHT22;2663;53.588;10.010;2023-02-17T08:32:43;10.50;99.90
5280;DHT22;2663;53.588;10.010;2023-02-17T08:35:09;10.60;99.90
5280;DHT22;2663;53.588;10.010;2023-02-17T08:37:36;10.60;99.90
5280;DHT22;2663;53.588;10.010;2023-02-17T08:40:03;10.60;99.90
5280;DHT22;2663;53.588;10.010;2023-02-17T08:42:31;10.60;99.90
5280;DHT22;2663;53.588;10.010;2023-02-17T08:44:57;10.60;99.90
5280;DHT22;2663;53.588;10.010;2023-02-17T08:47:24;10.60;99.90
5280;DHT22;2663;53.588;10.010;2023-02-17T08:49:51;10.60;99.90
5280;DHT22;2663;53.588;10.010;2023-02-17T08:52:17;10.60;99.90
5280;DHT22;2663;53.588;10.010;2023-02-17T08:54:44;10.60;99.90
5280;DHT22;2663;53.588;10.010;2023-02-17T08:57:11;10.60;99.90
5280;DHT22;2663;53.588;10.010;2023-02-17T08:59:38;10.50;99.90
5280;DHT22;2663;53.588;10.010;2023-02-17T09:02:05;10.50;99.90
5280;DHT22;2663;53.588;10.010;2023-02-17T09:04:32;10.50;99.90
5280;DHT22;2663;53.588;10.010;2023-02-17T09:06:58;10.50;99.90
5280;DHT22;2663;53.588;10.010;2023-02-17T09:09:26;10.50;99.90
5280;DHT22;2663;53.588;10.010;2023-02-17T09:11:57;10.50;99.90
5280;DHT22;2663;53.588;10.010;2023-02-17T09:14:24;10.50;99.90
5280;DHT22;2663;53.588;10.010;2023-02-17T09:16:52;10.50;99.90
5280;DHT22;2663;53.588;10.010;2023-02-17T09:19:19;10.50;99.90
5280;DHT22;2663;53.588;10.010;2023-02-17T09:21:46;10.60;99.90
5280;DHT22;2663;53.588;10.010;2023-02-17T09:24:14;10.60;99.90
5280;DHT22;2663;53.588;10.010;2023-02-17T09:26:41;10.60;99.90
5280;DHT22;2663;53.588;10.010;2023-02-17T09:29:08;10.60;99.90
5280;DHT22;2663;53.588;10.010;2023-02-17T09:31:35;10.50;99.90
5280;DHT22;2663;53.588;10.010;2023-02-17T09:34:03;10.60;99.90
5280;DHT22;2663;53.588;10.010;2023-02-17T09:36:32;10.60;99.90
5280;DHT22;2663;53.588;10.010;2023-02-17T09:39:00;10.60;99.90
5280;DHT22;2663;53.588;10.010;2023-02-17T09:41:41;10.70;99.90
5280;DHT22;2663;53.588;10.010;2023-02-17T09:44:21;10.60;99.90
5280;DHT22;2663;53.588;10.010;2023-02-17T09:47:02;10.60;99.90
5280;DHT22;2663;53.588;10.010;2023-02-17T09:49:44;10.60;99.90
5280;DHT22;2663;53.588;10.010;2023-02-17T09:57:28;10.70;99.90
5280;DHT22;2663;53.588;10.010;2023-02-17T10:00:13;10.70;99.90
5280;DHT22;2663;53.588;10.010;2023-02-17T10:05:21;10.70;99.90
5280;DHT22;2663;53.588;10.010;2023-02-17T10:08:26;10.70;99.90
5280;DHT22;2663;53.588;10.010;2023-02-17T10:10:58;10.70;99.90
5280;DHT22;2663;53.588;10.010;2023-02-17T10:13:29;10.70;99.90
5280;DHT22;2663;53.588;10.010;2023-02-17T10:16:00;10.70;99.90
5280;DHT22;2663;53.588;10.010;2023-02-17T10:18:46;10.80;99.90
5280;DHT22;2663;53.588;10.010;2023-02-17T10:21:36;10.70;99.90
5280;DHT22;2663;53.588;10.010;2023-02-17T10:24:04;10.80;99.90
5280;DHT22;2663;53.588;10.010;2023-02-17T10:26:50;10.80;99.90
5280;DHT22;2663;53.588;10.010;2023-02-17T10:29:49;10.80;99.90
5280;DHT22;2663;53.588;10.010;2023-02-17T10:32:22;10.90;99.90
5280;DHT22;2663;53.588;10.010;2023-02-17T10:35:16;10.90;99.90
5280;DHT22;2663;53.588;10.010;2023-02-17T10:37:44;10.90;99.90
5280;DHT22;2663;53.588;10.010;2023-02-17T10:40:22;10.90;99.90
5280;DHT22;2663;53.588;10.010;2023-02-17T10:42:54;10.90;99.90
5280;DHT22;2663;53.588;10.010;2023-02-17T10:45:34;10.90;99.90
5280;DHT22;2663;53.588;10.010;2023-02-17T10:48:07;10.90;99.90
5280;DHT22;2663;53.588;10.010;2023-02-17T10:50:35;10.90;99.90
5280;DHT22;2663;53.588;10.010;2023-02-17T10:53:13;10.90;99.90
5280;DHT22;2663;53.588;10.010;2023-02-17T10:58:47;11.00;99.90
5280;DHT22;2663;53.588;10.010;2023-02-17T11:01:16;11.00;99.90
5280;DHT22;2663;53.588;10.010;2023-02-17T11:03:42;11.00;99.90
5280;DHT22;2663;53.588;10.010;2023-02-17T11:06:20;11.00;99.90
5280;DHT22;2663;53.588;10.010;2023-02-17T11:08:57;11.10;99.90
5280;DHT22;2663;53.588;10.010;2023-02-17T11:11:27;11.10;99.90
5280;DHT22;2663;53.588;10.010;2023-02-17T11:14:20;11.10;99.90
5280;DHT22;2663;53.588;10.010;2023-02-17T11:16:56;11.10;99.90
5280;DHT22;2663;53.588;10.010;2023-02-17T11:19:28;11.10;99.90
5280;DHT22;2663;53.588;10.010;2023-02-17T11:21:57;11.10;99.90
5280;DHT22;2663;53.588;10.010;2023-02-17T11:24:25;11.10;99.90
5280;DHT22;2663;53.588;10.010;2023-02-17T11:26:59;11.10;99.90
5280;DHT22;2663;53.588;10.010;2023-02-17T11:29:27;11.10;99.90
5280;DHT22;2663;53.588;10.010;2023-02-17T11:31:59;11.20;99.90
5280;DHT22;2663;53.588;10.010;2023-02-17T11:34:30;11.10;99.90
5280;DHT22;2663;53.588;10.010;2023-02-17T11:37:21;11.20;99.90
5280;DHT22;2663;53.588;10.010;2023-02-17T11:39:51;11.20;99.90
5280;DHT22;2663;53.588;10.010;2023-02-17T11:42:26;11.10;99.90
5280;DHT22;2663;53.588;10.010;2023-02-17T11:44:56;11.10;99.90
5280;DHT22;2663;53.588;10.010;2023-02-17T11:47:32;11.10;99.90
5280;DHT22;2663;53.588;10.010;2023-02-17T11:50:21;11.20;99.90
5280;DHT22;2663;53.588;10.010;2023-02-17T11:56:15;11.20;99.90
5280;DHT22;2663;53.588;10.010;2023-02-17T11:58:49;11.20;99.90
5280;DHT22;2663;53.588;10.010;2023-02-17T12:14:52;11.20;99.90
5280;DHT22;2663;53.588;10.010;2023-02-17T12:31:55;11.30;99.90
5280;DHT22;2663;53.588;10.010;2023-02-17T12:34:24;11.30;99.90
5280;DHT22;2663;53.588;10.010;2023-02-17T12:36:56;11.30;99.90
5280;DHT22;2663;53.588;10.010;2023-02-17T12:40:13;11.30;99.90
5280;DHT22;2663;53.588;10.010;2023-02-17T12:42:17;11.40;99.90
5280;DHT22;2663;53.588;10.010;2023-02-17T12:44:50;11.30;99.90
5280;DHT22;2663;53.588;10.010;2023-02-17T12:47:29;11.30;99.90
5280;DHT22;2663;53.588;10.010;2023-02-17T12:50:10;11.40;99.90
5280;DHT22;2663;53.588;10.010;2023-02-17T12:52:43;11.40;99.90
5280;DHT22;2663;53.588;10.010;2023-02-17T12:57:56;11.30;99.90
5280;DHT22;2663;53.588;10.010;2023-02-17T13:02:59;11.30;99.90
5280;DHT22;2663;53.588;10.010;2023-02-17T13:05:28;11.30;99.90
5280;DHT22;2663;53.588;10.010;2023-02-17T13:08:00;11.40;99.90
5280;DHT22;2663;53.588;10.010;2023-02-17T13:10:38;11.30;99.90
5280;DHT22;2663;53.588;10.010;2023-02-17T13:13:09;11.30;99.90
5280;DHT22;2663;53.588;10.010;2023-02-17T13:15:40;11.30;99.90
5280;DHT22;2663;53.588;10.010;2023-02-17T13:18:35;11.30;99.90
5280;DHT22;2663;53.588;10.010;2023-02-17T13:24:11;11.40;99.90
5280;DHT22;2663;53.588;10.010;2023-02-17T13:26:39;11.40;99.90
5280;DHT22;2663;53.588;10.010;2023-02-17T13:32:05;11.40;99.90
5280;DHT22;2663;53.588;10.010;2023-02-17T13:34:41;11.40;99.90
5280;DHT22;2663;53.588;10.010;2023-02-17T13:40:01;11.50;99.90
5280;DHT22;2663;53.588;10.010;2023-02-17T13:42:39;11.50;99.90
5280;DHT22;2663;53.588;10.010;2023-02-17T13:45:19;11.60;99.90
5280;DHT22;2663;53.588;10.010;2023-02-17T13:47:49;11.60;99.90
5280;DHT22;2663;53.588;10.010;2023-02-17T13:50:34;11.60;99.90
5280;DHT22;2663;53.588;10.010;2023-02-17T13:53:18;11.60;99.90
5280;DHT22;2663;53.588;10.010;2023-02-17T13:55:45;11.60;99.90
5280;DHT22;2663;53.588;10.010;2023-02-17T13:58:12;11.60;99.90
5280;DHT22;2663;53.588;10.010;2023-02-17T14:00:42;11.60;99.90
5280;DHT22;2663;53.588;10.010;2023-02-17T14:03:19;11.60;99.90
5280;DHT22;2663;53.588;10.010;2023-02-17T14:05:48;11.60;99.90
5280;DHT22;2663;53.588;10.010;2023-02-17T14:08:37;11.70;99.90
5280;DHT22;2663;53.588;10.010;2023-02-17T14:11:09;11.70;99.90
5280;DHT22;2663;53.588;10.010;2023-02-17T14:13:38;11.70;99.90
5280;DHT22;2663;53.588;10.010;2023-02-17T14:16:05;11.70;99.90
5280;DHT22;2663;53.588;10.010;2023-02-17T14:18:38;11.80;99.90
5280;DHT22;2663;53.588;10.010;2023-02-17T14:21:23;11.80;99.90
5280;DHT22;2663;53.588;10.010;2023-02-17T14:23:52;11.90;99.90
5280;DHT22;2663;53.588;10.010;2023-02-17T14:26:40;11.90;99.90
5280;DHT22;2663;53.588;10.010;2023-02-17T14:29:09;12.00;99.90
5280;DHT22;2663;53.588;10.010;2023-02-17T14:31:49;12.00;99.90
5280;DHT22;2663;53.588;10.010;2023-02-17T14:36:54;12.00;99.90
5280;DHT22;2663;53.588;10.010;2023-02-17T14:39:21;12.00;99.90
5280;DHT22;2663;53.588;10.010;2023-02-17T14:41:47;11.90;99.90
5280;DHT22;2663;53.588;10.010;2023-02-17T14:44:14;12.00;99.90
5280;DHT22;2663;53.588;10.010;2023-02-17T14:46:40;11.90;99.90
5280;DHT22;2663;53.588;10.010;2023-02-17T14:49:07;11.80;99.90
5280;DHT22;2663;53.588;10.010;2023-02-17T14:51:36;11.70;99.90
5280;DHT22;2663;53.588;10.010;2023-02-17T14:54:13;11.70;99.90
5280;DHT22;2663;53.588;10.010;2023-02-17T14:57:01;11.70;99.90
5280;DHT22;2663;53.588;10.010;2023-02-17T14:59:30;11.60;99.90
5280;DHT22;2663;53.588;10.010;2023-02-17T15:01:57;11.60;99.90
5280;DHT22;2663;53.588;10.010;2023-02-17T15:04:24;11.60;99.90
5280;DHT22;2663;53.588;10.010;2023-02-17T15:06:51;11.60;99.90
5280;DHT22;2663;53.588;10.010;2023-02-17T15:09:27;11.60;99.90
5280;DHT22;2663;53.588;10.010;2023-02-17T15:11:55;11.50;99.90
5280;DHT22;2663;53.588;10.010;2023-02-17T15:14:22;11.50;99.90
5280;DHT22;2663;53.588;10.010;2023-02-17T15:16:49;11.40;99.90
5280;DHT22;2663;53.588;10.010;2023-02-17T15:19:16;11.40;99.90
5280;DHT22;2663;53.588;10.010;2023-02-17T15:21:47;11.40;99.90
5280;DHT22;2663;53.588;10.010;2023-02-17T15:24:17;11.30;99.90
5280;DHT22;2663;53.588;10.010;2023-02-17T15:26:44;11.30;99.90
5280;DHT22;2663;53.588;10.010;2023-02-17T15:29:19;11.20;99.90
5280;DHT22;2663;53.588;10.010;2023-02-17T15:31:47;11.20;99.90
5280;DHT22;2663;53.588;10.010;2023-02-17T15:34:16;11.10;99.90
5280;DHT22;2663;53.588;10.010;2023-02-17T15:36:44;11.00;99.90
5280;DHT22;2663;53.588;10.010;2023-02-17T15:39:18;11.00;99.90
5280;DHT22;2663;53.588;10.010;2023-02-17T15:41:46;10.90;99.90
5280;DHT22;2663;53.588;10.010;2023-02-17T15:44:23;10.90;99.90
5280;DHT22;2663;53.588;10.010;2023-02-17T15:46:53;10.80;99.90
5280;DHT22;2663;53.588;10.010;2023-02-17T15:49:21;10.70;99.90
5280;DHT22;2663;53.588;10.010;2023-02-17T15:51:48;10.70;99.90
5280;DHT22;2663;53.588;10.010;2023-02-17T15:54:14;10.70;99.90
5280;DHT22;2663;53.588;10.010;2023-02-17T15:56:47;10.60;99.90
5280;DHT22;2663;53.588;10.010;2023-02-17T15:59:21;10.70;99.90
5280;DHT22;2663;53.588;10.010;2023-02-17T16:01:48;10.60;99.90
5280;DHT22;2663;53.588;10.010;2023-02-17T16:04:16;10.50;99.90
5280;DHT22;2663;53.588;10.010;2023-02-17T16:06:43;10.50;99.90
5280;DHT22;2663;53.588;10.010;2023-02-17T16:09:10;10.40;99.90
5280;DHT22;2663;53.588;10.010;2023-02-17T16:11:49;10.40;99.90
5280;DHT22;2663;53.588;10.010;2023-02-17T16:14:24;10.30;99.90
5280;DHT22;2663;53.588;10.010;2023-02-17T16:16:52;10.30;99.90
5280;DHT22;2663;53.588;10.010;2023-02-17T16:19:19;10.20;99.90
5280;DHT22;2663;53.588;10.010;2023-02-17T16:21:46;10.20;99.90
5280;DHT22;2663;53.588;10.010;2023-02-17T16:24:12;10.20;99.90
5280;DHT22;2663;53.588;10.010;2023-02-17T16:26:40;10.10;99.90
5280;DHT22;2663;53.588;10.010;2023-02-17T16:29:16;10.10;99.90
5280;DHT22;2663;53.588;10.010;2023-02-17T16:31:43;10.10;99.90
5280;DHT22;2663;53.588;10.010;2023-02-17T16:34:21;10.00;99.90
5280;DHT22;2663;53.588;10.010;2023-02-17T16:36:49;10.00;99.90
5280;DHT22;2663;53.588;10.010;2023-02-17T16:39:18;10.00;99.90
5280;DHT22;2663;53.588;10.010;2023-02-17T16:41:46;9.90;99.90
5280;DHT22;2663;53.588;10.010;2023-02-17T16:44:15;9.90;99.90
5280;DHT22;2663;53.588;10.010;2023-02-17T16:46:53;9.80;99.90
5280;DHT22;2663;53.588;10.010;2023-02-17T16:49:25;9.80;99.90
5280;DHT22;2663;53.588;10.010;2023-02-17T16:52:03;9.80;99.90
5280;DHT22;2663;53.588;10.010;2023-02-17T16:54:30;9.80;99.90
5280;DHT22;2663;53.588;10.010;2023-02-17T16:57:00;9.70;99.90
5280;DHT22;2663;53.588;10.010;2023-02-17T16:59:27;9.70;99.90
5280;DHT22;2663;53.588;10.010;2023-02-17T17:01:54;9.70;99.90
5280;DHT22;2663;53.588;10.010;2023-02-17T17:04:20;9.60;99.90
5280;DHT22;2663;53.588;10.010;2023-02-17T17:06:50;9.60;99.90
5280;DHT22;2663;53.588;10.010;2023-02-17T17:09:22;9.60;99.90
5280;DHT22;2663;53.588;10.010;2023-02-17T17:11:49;9.60;99.90
5280;DHT22;2663;53.588;10.010;2023-02-17T17:14:16;9.60;99.90
5280;DHT22;2663;53.588;10.010;2023-02-17T17:16:47;9.60;99.90
5280;DHT22;2663;53.588;10.010;2023-02-17T17:19:16;9.50;99.90
5280;DHT22;2663;53.588;10.010;2023-02-17T17:21:43;9.50;99.90
5280;DHT22;2663;53.588;10.010;2023-02-17T17:24:10;9.50;99.90
5280;DHT22;2663;53.588;10.010;2023-02-17T17:26:40;9.50;99.90